Terminal Aerodrome Forecast
Issued by NWS

Home | Current Version | Previous Version | Text Only | Print | Product List | Glossary On
Versions: 1 2 3 4 5 6 7 8 9 10 11 12 13
560
FTUS46 KPDT 110524
TAFDLS
TAF
KDLS 110524Z 1106/1206 VRB02KT P6SM SCT080 OVC120
     FM111200 09003KT 6SM BR SCT010 OVC080
     FM111900 09005KT P6SM -SHRA BKN050 OVC070
     FM112200 VRB05KT P6SM OVC100=

USA.gov is the U.S. government's official web portal to all federal, state and local government web resources and services.